Time;durP1;ratioP1;P1;durP2;ratioP2;P2;SDS_P1;SDS_P2;PMS_P1;PMS_P2;Temp;Humidity;BMP_temperature;BMP_pressure;BME280_temperature;BME280_humidity;BME280_pressure;Samples;Min_cycle;Max_cycle;Signal;HPM_P1;HPM_P2
2022/05/11 00:01:10;;;;;;;2.97;2.73;;;;;;;16.87;66.55;100770.03;5136906;27;20256;-70
2022/05/11 00:03:36;;;;;;;3.13;3.03;;;;;;;16.97;67.02;100768.44;5138580;27;20236;-70
2022/05/11 00:06:03;;;;;;;3.23;3.20;;;;;;;16.99;67.09;100761.25;5138454;27;20525;-70
2022/05/11 00:08:29;;;;;;;3.33;3.07;;;;;;;16.94;68.28;100752.78;5138494;27;20599;-70
2022/05/11 00:10:56;;;;;;;3.37;3.27;;;;;;;16.92;70.24;100752.03;5138114;27;20229;-69
2022/05/11 00:13:22;;;;;;;2.93;2.93;;;;;;;16.89;72.00;100744.31;5138086;27;20192;-69
2022/05/11 00:15:49;;;;;;;3.23;3.10;;;;;;;16.85;72.25;100748.09;5137996;27;20184;-69
2022/05/11 00:18:15;;;;;;;4.03;3.10;;;;;;;16.86;72.96;100740.09;5138104;27;20205;-68
2022/05/11 00:20:42;;;;;;;3.30;3.20;;;;;;;16.81;73.71;100743.97;5137827;27;20708;-68
2022/05/11 00:23:08;;;;;;;2.77;2.77;;;;;;;16.76;73.44;100742.47;5137843;27;20199;-68
2022/05/11 00:25:34;;;;;;;4.20;3.90;;;;;;;16.75;73.23;100739.94;5137783;27;20177;-68
2022/05/11 00:28:01;;;;;;;3.83;3.53;;;;;;;16.71;73.07;100738.44;5137968;27;20187;-68
2022/05/11 00:30:29;;;;;;;4.20;4.00;;;;;;;16.67;73.22;100735.13;5137675;27;20212;-68
2022/05/11 00:32:58;;;;;;;4.30;4.20;;;;;;;16.63;73.32;100727.50;5137644;27;20187;-68
2022/05/11 00:35:28;;;;;;;3.77;3.67;;;;;;;16.63;73.56;100723.03;5137621;27;20184;-68
2022/05/11 00:37:54;;;;;;;4.13;4.03;;;;;;;16.71;73.98;100715.47;5137308;27;20193;-68
2022/05/11 00:40:22;;;;;;;4.03;3.93;;;;;;;16.54;74.58;100710.44;5137490;27;20196;-68
2022/05/11 00:42:49;;;;;;;3.50;3.40;;;;;;;16.44;75.57;100704.09;5138044;27;20180;-68
2022/05/11 00:45:17;;;;;;;3.70;3.60;;;;;;;16.46;76.20;100705.66;5137424;27;20185;-68
2022/05/11 00:47:48;;;;;;;3.97;3.97;;;;;;;16.38;76.76;100712.41;5137539;27;20193;-68
2022/05/11 00:50:21;;;;;;;3.77;3.67;;;;;;;16.32;77.16;100704.88;5137382;27;20172;-68
2022/05/11 00:52:56;;;;;;;3.63;3.50;;;;;;;16.30;77.18;100696.22;5137900;27;20187;-68
2022/05/11 00:55:30;;;;;;;3.90;3.80;;;;;;;16.28;76.96;100696.28;5137552;27;20171;-68
2022/05/11 00:58:02;;;;;;;3.80;3.70;;;;;;;16.27;77.41;100702.53;5137715;27;20176;-68
2022/05/11 01:00:29;;;;;;;3.40;3.30;;;;;;;16.30;77.07;100697.06;5137680;27;20201;-68
2022/05/11 01:03:04;;;;;;;4.33;4.33;;;;;;;16.37;76.63;100694.88;5137293;27;20561;-68
2022/05/11 01:05:31;;;;;;;4.20;4.10;;;;;;;16.35;76.80;100692.31;5137610;27;20180;-68
2022/05/11 01:07:58;;;;;;;4.10;4.10;;;;;;;16.33;77.41;100696.00;5137519;27;20188;-68
2022/05/11 01:10:28;;;;;;;4.57;4.57;;;;;;;16.34;78.05;100695.06;5136448;27;20578;-68
2022/05/11 01:12:58;;;;;;;7.00;4.07;;;;;;;16.34;78.47;100682.69;5137175;27;20181;-68
2022/05/11 01:15:26;;;;;;;4.33;4.03;;;;;;;16.28;79.17;100682.25;5137408;27;20193;-68
2022/05/11 01:17:53;;;;;;;4.20;4.00;;;;;;;16.26;80.08;100678.84;5136736;27;20185;-67
2022/05/11 01:20:22;;;;;;;4.37;4.27;;;;;;;16.23;80.58;100670.19;5136626;27;20212;-67
2022/05/11 01:23:01;;;;;;;4.77;4.43;;;;;;;16.24;81.00;100665.75;5136687;27;20185;-67
2022/05/11 01:25:31;;;;;;;4.53;4.43;;;;;;;16.23;81.01;100667.56;5136972;27;20629;-67
2022/05/11 01:28:18;;;;;;;4.63;4.43;;;;;;;16.28;81.07;100672.50;5136515;27;20192;-67
2022/05/11 01:30:49;;;;;;;4.93;4.63;;;;;;;16.25;81.10;100659.53;5136900;27;20222;-67
2022/05/11 01:33:22;;;;;;;4.20;4.10;;;;;;;16.24;81.34;100665.75;5136547;27;20176;-68
2022/05/11 01:36:02;;;;;;;4.93;4.70;;;;;;;16.29;81.18;100660.16;5136526;27;20260;-68
2022/05/11 01:38:46;;;;;;;4.47;4.37;;;;;;;16.23;81.11;100666.72;5136578;27;20243;-68
2022/05/11 01:41:18;;;;;;;4.13;4.03;;;;;;;16.18;80.83;100661.72;5137046;27;20538;-68
2022/05/11 01:43:45;;;;;;;4.17;3.97;;;;;;;16.14;80.42;100651.44;5136886;27;20176;-68
2022/05/11 01:46:11;;;;;;;4.10;4.07;;;;;;;16.13;80.19;100642.66;5136232;27;20665;-68
2022/05/11 01:48:38;;;;;;;4.37;3.60;;;;;;;16.13;79.83;100639.19;5136105;27;20693;-68
2022/05/11 01:51:05;;;;;;;3.90;3.90;;;;;;;16.16;80.00;100634.56;5136425;27;20217;-68
2022/05/11 01:53:31;;;;;;;4.07;4.07;;;;;;;16.16;79.78;100634.56;5136059;27;20195;-68
2022/05/11 01:55:58;;;;;;;3.70;3.70;;;;;;;16.12;79.22;100630.41;5136027;27;20189;-68
2022/05/11 01:58:25;;;;;;;3.77;3.77;;;;;;;16.17;78.26;100628.31;5135936;27;20212;-68
2022/05/11 02:00:52;;;;;;;4.47;4.33;;;;;;;16.22;76.77;100630.69;5135843;27;20232;-68
2022/05/11 02:03:20;;;;;;;3.80;3.70;;;;;;;16.19;76.27;100626.41;5136178;27;20579;-68
2022/05/11 02:08:34;;;;;;;3.67;3.57;;;;;;;16.23;77.25;100627.94;5135745;27;20208;-68
2022/05/11 02:11:01;;;;;;;3.80;3.80;;;;;;;16.20;77.42;100624.63;5135729;27;20229;-68
2022/05/11 02:13:30;;;;;;;3.97;3.87;;;;;;;16.20;76.87;100621.97;5136008;27;20181;-68
2022/05/11 02:15:57;;;;;;;3.63;3.63;;;;;;;16.19;77.45;100615.84;5135931;27;20189;-68
2022/05/11 02:18:23;;;;;;;4.07;3.87;;;;;;;16.11;77.14;100612.03;5135473;27;20231;-68
2022/05/11 02:20:50;;;;;;;4.17;4.17;;;;;;;16.10;77.03;100615.63;5135468;27;20256;-68
2022/05/11 02:23:19;;;;;;;3.93;3.93;;;;;;;16.03;77.47;100617.81;5134923;27;20261;-68
2022/05/11 02:25:47;;;;;;;4.40;4.33;;;;;;;16.01;77.84;100617.09;5135445;27;20184;-68
2022/05/11 02:28:14;;;;;;;3.50;3.50;;;;;;;15.95;77.89;100609.56;5135568;27;20261;-68
2022/05/11 02:30:43;;;;;;;3.47;3.47;;;;;;;15.91;78.23;100608.91;5135629;27;20594;-68
2022/05/11 02:33:10;;;;;;;3.97;3.63;;;;;;;15.92;78.15;100612.38;5135337;27;20192;-68
2022/05/11 02:35:38;;;;;;;4.83;4.73;;;;;;;15.89;78.18;100617.88;5135564;27;20217;-68
2022/05/11 02:38:07;;;;;;;4.43;4.33;;;;;;;15.83;78.31;100608.56;5135069;27;20216;-68
2022/05/11 02:40:36;;;;;;;4.40;4.30;;;;;;;15.81;78.18;100602.53;5135652;27;20192;-68
2022/05/11 02:43:03;;;;;;;4.07;4.07;;;;;;;15.78;78.00;100597.44;5135111;27;20689;-68
2022/05/11 02:45:32;;;;;;;4.70;4.40;;;;;;;15.76;77.90;100606.41;5135313;27;20189;-68
2022/05/11 02:47:59;;;;;;;3.87;3.77;;;;;;;15.77;77.73;100594.91;5135212;27;20287;-68
2022/05/11 02:50:28;;;;;;;4.70;4.30;;;;;;;15.78;77.80;100593.94;5134991;27;20184;-68
2022/05/11 02:52:55;;;;;;;4.80;4.70;;;;;;;15.77;77.57;100586.97;5134917;27;20702;-68
2022/05/11 02:55:22;;;;;;;4.63;4.43;;;;;;;15.78;77.34;100593.94;5135198;27;20177;-68
2022/05/11 02:57:49;;;;;;;4.30;4.30;;;;;;;15.78;77.33;100599.22;5135075;27;20203;-68
2022/05/11 03:00:18;;;;;;;4.67;4.40;;;;;;;15.79;76.79;100600.91;5134824;27;20650;-69
2022/05/11 03:02:45;;;;;;;5.30;5.10;;;;;;;15.79;76.67;100600.91;5134706;27;20580;-69
2022/05/11 03:05:13;;;;;;;4.20;4.20;;;;;;;15.77;77.23;100593.09;5135004;27;20199;-68
2022/05/11 03:07:40;;;;;;;4.70;4.60;;;;;;;15.73;78.17;100588.13;5135301;27;20598;-68
2022/05/11 03:10:08;;;;;;;4.57;4.27;;;;;;;15.67;78.55;100587.59;5134574;27;20208;-68
2022/05/11 03:12:35;;;;;;;5.37;4.23;;;;;;;15.67;78.40;100573.53;5134534;27;20548;-68
2022/05/11 03:15:03;;;;;;;3.90;3.60;;;;;;;15.60;78.46;100572.22;5134586;27;20725;-68
2022/05/11 03:17:30;;;;;;;4.53;4.33;;;;;;;15.54;78.90;100565.53;5134813;27;20181;-68
2022/05/11 03:19:56;;;;;;;4.73;4.73;;;;;;;15.47;79.23;100564.22;5134412;27;20300;-68
2022/05/11 03:22:23;;;;;;;4.77;4.67;;;;;;;15.46;79.19;100564.34;5116607;27;20204;-68
2022/05/11 03:24:50;;;;;;;8.13;3.83;;;;;;;15.47;79.01;100566.03;5134429;27;20184;-68
2022/05/11 03:27:17;;;;;;;4.17;4.17;;;;;;;15.48;78.99;100558.00;5134687;27;20185;-68
2022/05/11 03:29:43;;;;;;;4.60;4.30;;;;;;;15.53;78.91;100555.06;5134607;27;20208;-67
2022/05/11 03:34:55;;;;;;;4.50;4.10;;;;;;;15.53;78.41;100553.28;5134435;27;20207;-68
2022/05/11 03:37:22;;;;;;;4.27;3.97;;;;;;;15.56;77.72;100550.44;5134152;27;20192;-68
2022/05/11 03:39:49;;;;;;;5.03;4.93;;;;;;;15.57;77.72;100548.63;5134143;28;20208;-68
2022/05/11 03:42:19;;;;;;;4.00;4.00;;;;;;;15.63;78.41;100548.28;5134200;28;20612;-68
2022/05/11 03:44:46;;;;;;;4.20;4.10;;;;;;;15.60;78.71;100544.03;5134505;28;20183;-68
2022/05/11 03:47:12;;;;;;;4.90;4.80;;;;;;;15.61;78.62;100543.09;5134154;28;20220;-68
2022/05/11 03:49:38;;;;;;;4.47;4.30;;;;;;;15.62;78.16;100542.16;5134409;28;20240;-68
2022/05/11 03:52:05;;;;;;;14.53;4.20;;;;;;;15.58;78.56;100545.91;5134432;28;20180;-68
2022/05/11 03:54:36;;;;;;;4.00;4.00;;;;;;;15.60;78.69;100528.19;5134452;28;20173;-68
2022/05/11 03:57:03;;;;;;;3.40;3.37;;;;;;;15.56;79.13;100528.47;5134418;28;20184;-68
2022/05/11 03:59:29;;;;;;;4.17;3.97;;;;;;;15.54;79.29;100536.50;5133973;28;20709;-68
2022/05/11 04:01:55;;;;;;;3.80;3.67;;;;;;;15.52;79.90;100533.13;5134241;28;20240;-68
2022/05/11 04:04:22;;;;;;;4.10;4.00;;;;;;;15.52;79.85;100533.13;5134038;28;20271;-69
2022/05/11 04:06:49;;;;;;;4.10;4.00;;;;;;;15.53;79.79;100532.16;5134011;28;20193;-70
2022/05/11 04:09:15;;;;;;;4.23;4.13;;;;;;;15.54;79.98;100539.13;5133935;28;20699;-70
2022/05/11 04:11:41;;;;;;;4.20;4.20;;;;;;;15.53;79.71;100529.53;5133924;28;20662;-70
2022/05/11 04:14:08;;;;;;;4.93;4.63;;;;;;;15.56;79.08;100534.59;5133936;28;20234;-70
2022/05/11 04:16:34;;;;;;;3.70;3.70;;;;;;;15.56;79.46;100542.50;5133847;28;20200;-70
2022/05/11 04:19:01;;;;;;;3.77;3.50;;;;;;;15.59;79.80;100546.78;5134086;28;20279;-70
2022/05/11 04:21:28;;;;;;;4.23;4.07;;;;;;;15.59;80.09;100542.34;5133784;28;20208;-70
2022/05/11 04:23:54;;;;;;;4.63;4.10;;;;;;;15.61;79.60;100544.88;5134148;28;20594;-70
2022/05/11 04:26:21;;;;;;;4.50;4.40;;;;;;;15.59;79.89;100541.50;5133855;28;20185;-70
2022/05/11 04:28:47;;;;;;;3.97;3.97;;;;;;;15.57;80.50;100543.34;5133713;28;20212;-70
2022/05/11 04:31:14;;;;;;;4.97;4.77;;;;;;;15.58;80.57;100540.66;5133816;28;20181;-70
2022/05/11 04:33:40;;;;;;;7.10;4.07;;;;;;;15.57;80.43;100528.41;5134205;28;20188;-70
2022/05/11 04:36:08;;;;;;;4.30;4.30;;;;;;;15.58;80.98;100537.16;5133757;28;20181;-70
2022/05/11 04:38:35;;;;;;;4.77;4.10;;;;;;;15.61;80.38;100529.91;5115146;28;20261;-70
2022/05/11 04:41:02;;;;;;;4.73;4.53;;;;;;;15.56;80.45;100524.03;5115218;28;20195;-70
2022/05/11 04:43:28;;;;;;;4.27;4.17;;;;;;;15.55;80.62;100525.00;5133671;28;20316;-70
2022/05/11 04:45:57;;;;;;;4.27;4.17;;;;;;;15.58;81.14;100526.59;5134694;27;20192;-70
2022/05/11 04:48:24;;;;;;;7.27;4.27;;;;;;;15.55;82.02;100525.00;5137594;27;20713;-70
2022/05/11 04:50:51;;;;;;;4.77;4.67;;;;;;;15.58;82.22;100519.53;5137621;27;20193;-70
2022/05/11 04:53:18;;;;;;;4.40;4.30;;;;;;;15.55;82.66;100513.59;5137310;27;20193;-70
2022/05/11 04:55:46;;;;;;;6.73;4.83;;;;;;;15.55;83.08;100518.88;5137227;27;20670;-70
2022/05/11 04:58:14;;;;;;;5.00;4.80;;;;;;;15.55;82.85;100516.22;5118680;27;20230;-70
2022/05/11 05:00:41;;;;;;;6.63;4.50;;;;;;;15.56;82.40;100513.47;5137412;27;20196;-70
2022/05/11 05:03:10;;;;;;;4.83;4.43;;;;;;;15.56;82.16;100508.19;5119031;27;20288;-70
2022/05/11 05:05:37;;;;;;;4.40;4.10;;;;;;;15.54;82.66;100506.63;5137569;27;20255;-70
2022/05/11 05:08:05;;;;;;;6.90;4.53;;;;;;;15.56;83.44;100504.72;5137219;27;20209;-69
2022/05/11 05:10:31;;;;;;;4.03;3.87;;;;;;;15.55;83.69;100503.88;5137231;27;20246;-68
2022/05/11 05:13:06;;;;;;;4.67;4.57;;;;;;;15.62;83.89;100499.91;5136882;27;20188;-68
2022/05/11 05:15:35;;;;;;;10.33;4.93;;;;;;;15.71;83.61;100497.63;5137070;27;20172;-68
2022/05/11 05:18:03;;;;;;;7.37;4.80;;;;;;;15.68;83.76;100490.75;5137011;27;20569;-68
2022/05/11 05:20:30;;;;;;;6.17;5.20;;;;;;;15.68;83.91;100494.25;5137077;27;20181;-68
2022/05/11 05:22:56;;;;;;;5.27;4.87;;;;;;;15.73;84.24;100495.75;5136557;27;20204;-68
2022/05/11 05:25:23;;;;;;;5.30;4.93;;;;;;;15.80;84.17;100508.44;5136556;27;20189;-68
2022/05/11 05:27:50;;;;;;;5.00;4.80;;;;;;;15.90;83.57;100509.50;5136514;27;20185;-68
2022/05/11 05:33:03;;;;;;;4.63;4.33;;;;;;;16.22;79.93;100504.69;5136468;27;20683;-69
2022/05/11 05:35:30;;;;;;;4.73;4.60;;;;;;;16.36;77.51;100518.75;5136279;27;20219;-69
2022/05/11 05:37:56;;;;;;;5.83;5.23;;;;;;;16.43;77.10;100518.25;5136205;27;20249;-68
2022/05/11 05:40:23;;;;;;;5.00;4.80;;;;;;;16.52;76.38;100511.47;5136301;27;20189;-68
2022/05/11 05:42:49;;;;;;;5.63;5.40;;;;;;;16.58;76.23;100515.50;5136795;27;20210;-69
2022/05/11 05:45:16;;;;;;;5.63;5.47;;;;;;;16.63;76.41;100513.34;5136835;27;20180;-69
2022/05/11 05:47:42;;;;;;;18.10;5.80;;;;;;;16.69;76.41;100520.84;5136096;27;20219;-69
2022/05/11 05:50:09;;;;;;;6.07;5.30;;;;;;;16.73;76.17;100514.44;5136161;27;20223;-69
2022/05/11 05:52:36;;;;;;;4.90;4.67;;;;;;;16.82;75.96;100515.59;5136364;27;20161;-68
2022/05/11 05:55:03;;;;;;;4.60;4.50;;;;;;;16.88;75.90;100523.09;5136386;27;20189;-68
2022/05/11 05:57:30;;;;;;;4.70;4.40;;;;;;;16.99;73.69;100520.53;5135926;27;20187;-68
2022/05/11 05:59:57;;;;;;;4.27;4.00;;;;;;;17.05;73.61;100522.75;5136073;27;20205;-68
2022/05/11 06:02:23;;;;;;;4.70;4.47;;;;;;;17.13;73.02;100511.59;5136375;27;20208;-68
2022/05/11 06:04:51;;;;;;;4.33;4.23;;;;;;;17.29;72.94;100510.41;5136024;27;20582;-68
2022/05/11 06:07:19;;;;;;;4.80;4.67;;;;;;;17.43;71.03;100509.41;5135853;27;20216;-68
2022/05/11 06:09:45;;;;;;;8.23;4.73;;;;;;;17.50;72.26;100510.66;5135883;27;20233;-68
2022/05/11 06:12:14;;;;;;;5.70;5.17;;;;;;;17.59;71.72;100507.31;5135681;27;20208;-68
2022/05/11 06:14:41;;;;;;;4.57;4.27;;;;;;;17.75;69.88;100509.69;5135664;27;20212;-68
2022/05/11 06:17:19;;;;;;;5.80;5.37;;;;;;;17.85;69.22;100505.38;5135889;27;20212;-68
2022/05/11 06:19:46;;;;;;;5.13;4.90;;;;;;;17.94;68.39;100505.69;5135655;27;20204;-69
2022/05/11 06:22:12;;;;;;;4.40;3.93;;;;;;;18.06;68.42;100499.41;5135504;27;20261;-69
2022/05/11 06:24:39;;;;;;;4.40;4.20;;;;;;;18.26;66.97;100509.34;5135462;27;20613;-69
2022/05/11 06:27:12;;;;;;;4.67;4.33;;;;;;;18.35;65.53;100505.16;5135380;27;20188;-70
2022/05/11 06:29:39;;;;;;;5.70;4.07;;;;;;;18.48;65.76;100507.69;5135366;27;20226;-69
2022/05/11 06:32:05;;;;;;;4.00;3.87;;;;;;;18.47;66.03;100512.16;5135261;27;20609;-69
2022/05/11 06:34:32;;;;;;;4.73;4.20;;;;;;;18.51;63.62;100515.44;5135203;27;20258;-69
2022/05/11 06:36:58;;;;;;;4.23;4.13;;;;;;;18.65;63.57;100509.91;5135222;27;20184;-69
2022/05/11 06:39:25;;;;;;;9.70;4.30;;;;;;;18.65;63.80;100510.72;5134977;27;20223;-69
2022/05/11 06:41:51;;;;;;;3.87;3.83;;;;;;;18.78;64.64;100518.59;5135358;27;20188;-69
2022/05/11 06:44:17;;;;;;;5.33;4.93;;;;;;;18.91;64.27;100516.66;5135077;27;20297;-69
2022/05/11 06:46:44;;;;;;;6.93;5.13;;;;;;;18.93;64.65;100519.19;5135572;27;20271;-70
2022/05/11 06:49:11;;;;;;;5.80;5.67;;;;;;;18.89;65.77;100505.31;5135203;27;20207;-69
2022/05/11 06:51:38;;;;;;;7.50;7.10;;;;;;;19.00;65.94;100516.88;5135220;27;20212;-70
2022/05/11 06:59:34;;;;;;;6.67;6.47;;;;;;;18.98;68.05;100509.91;5134766;27;20236;-70
2022/05/11 07:02:03;;;;;;;7.33;6.83;;;;;;;18.98;68.92;100506.41;5135279;27;20197;-70
2022/05/11 07:04:33;;;;;;;11.50;8.03;;;;;;;18.91;69.06;100521.13;5134688;27;20192;-70
2022/05/11 07:07:00;;;;;;;11.57;8.70;;;;;;;18.89;68.64;100509.78;5135223;27;20192;-71
2022/05/11 07:09:32;;;;;;;9.87;9.20;;;;;;;18.83;67.58;100521.72;5134166;27;20215;-71
2022/05/11 07:12:20;;;;;;;10.33;9.37;;;;;;;18.76;68.34;100522.34;5134905;27;20507;-71
2022/05/11 07:14:53;;;;;;;9.93;9.43;;;;;;;18.65;68.54;100516.03;5134577;27;20228;-70
2022/05/11 07:17:30;;;;;;;10.77;10.07;;;;;;;18.66;68.46;100517.75;5134886;27;20177;-71
2022/05/11 07:19:59;;;;;;;10.10;9.20;;;;;;;18.70;69.04;100519.19;5134555;27;20215;-70
2022/05/11 07:22:26;;;;;;;12.10;11.07;;;;;;;18.56;69.58;100514.09;5134624;27;20567;-71
2022/05/11 07:24:53;;;;;;;18.17;10.43;;;;;;;18.79;69.38;100506.16;5134432;27;20188;-70
2022/05/11 07:27:21;;;;;;;10.43;9.40;;;;;;;18.89;68.62;100505.31;5134594;27;20222;-70
2022/05/11 07:29:51;;;;;;;11.80;10.57;;;;;;;18.87;69.50;100509.91;5134475;27;20735;-70
2022/05/11 07:32:18;;;;;;;9.23;8.20;;;;;;;18.87;68.23;100509.91;5134607;27;20188;-70
2022/05/11 07:34:45;;;;;;;9.70;8.03;;;;;;;18.95;68.26;100496.88;5134563;27;20180;-70
2022/05/11 07:37:11;;;;;;;9.23;6.87;;;;;;;19.07;67.63;100494.19;5134243;27;20176;-70
2022/05/11 07:39:38;;;;;;;6.67;6.47;;;;;;;19.24;66.13;100494.53;5134074;27;20208;-70
2022/05/11 07:42:05;;;;;;;7.03;6.60;;;;;;;19.14;66.88;100496.22;5134141;28;20348;-70
2022/05/11 07:44:31;;;;;;;5.93;5.40;;;;;;;19.24;63.80;100502.50;5134182;28;20658;-70
2022/05/11 07:46:58;;;;;;;8.93;4.60;;;;;;;19.30;64.33;100511.78;5134481;28;20208;-70
2022/05/11 07:49:24;;;;;;;14.33;4.50;;;;;;;19.27;63.34;100508.53;5134327;28;20239;-70
2022/05/11 07:51:52;;;;;;;5.20;4.80;;;;;;;19.36;64.82;100505.97;5134028;28;20588;-70
2022/05/11 07:54:20;;;;;;;4.40;4.10;;;;;;;19.44;64.84;100510.66;5134214;28;20526;-70
2022/05/11 08:02:18;;;;;;;3.73;3.50;;;;;;;19.72;63.16;100504.81;5133993;28;20192;-70
2022/05/11 08:04:45;;;;;;;3.87;3.77;;;;;;;19.61;62.40;100509.31;5134228;28;20222;-70
2022/05/11 08:07:14;;;;;;;3.27;3.07;;;;;;;19.61;62.63;100504.00;5134236;28;20192;-70
2022/05/11 08:09:41;;;;;;;3.43;3.23;;;;;;;19.65;62.69;100500.13;5134092;28;20219;-71
2022/05/11 08:12:09;;;;;;;3.00;2.70;;;;;;;19.78;63.70;100500.75;5134508;28;20192;-70
2022/05/11 08:14:35;;;;;;;7.53;2.93;;;;;;;19.78;62.74;100493.63;5134185;28;20651;-70
2022/05/11 08:17:02;;;;;;;3.37;3.23;;;;;;;19.88;63.16;100495.56;5133853;28;20189;-70
2022/05/11 08:19:28;;;;;;;4.27;3.40;;;;;;;19.92;62.31;100497.78;5133833;28;20254;-70
2022/05/11 08:21:55;;;;;;;3.83;3.17;;;;;;;19.81;62.73;100495.22;5136664;27;20212;-71
2022/05/11 08:24:22;;;;;;;3.57;3.23;;;;;;;19.77;63.89;100499.09;5137827;27;20191;-71
2022/05/11 08:26:51;;;;;;;6.03;2.83;;;;;;;19.97;64.21;100500.09;5137823;27;20188;-70
2022/05/11 08:34:51;;;;;;;3.50;3.33;;;;;;;20.10;63.37;100489.25;5138231;27;20213;-70
2022/05/11 08:37:18;;;;;;;4.17;3.70;;;;;;;20.19;63.96;100488.47;5137564;27;20181;-70
2022/05/11 08:39:45;;;;;;;3.80;3.50;;;;;;;20.15;63.43;100497.69;5137406;27;20216;-70
2022/05/11 08:42:12;;;;;;;4.10;3.80;;;;;;;20.26;63.61;100492.28;5137335;27;20201;-70
2022/05/11 08:44:46;;;;;;;4.10;3.67;;;;;;;20.22;63.32;100498.88;5137633;27;20195;-71
2022/05/11 08:47:37;;;;;;;5.13;3.50;;;;;;;20.35;63.17;100488.84;5137860;27;20514;-70
2022/05/11 08:50:11;;;;;;;5.47;3.80;;;;;;;20.37;61.69;100489.56;5137513;27;20204;-70
2022/05/11 08:52:50;;;;;;;3.73;3.73;;;;;;;20.23;62.10;100484.59;5137662;27;20193;-70
2022/05/11 08:55:35;;;;;;;6.23;3.13;;;;;;;20.12;61.70;100498.78;5137814;27;20177;-70
2022/05/11 08:58:08;;;;;;;6.90;3.73;;;;;;;20.21;62.60;100491.84;5137152;27;20288;-71
2022/05/11 09:00:39;;;;;;;6.90;3.50;;;;;;;20.26;62.83;100484.31;5137474;27;20204;-70
2022/05/11 09:03:27;;;;;;;4.50;4.00;;;;;;;20.28;62.36;100491.19;5137088;27;20192;-71
2022/05/11 09:05:56;;;;;;;4.33;4.23;;;;;;;20.37;61.33;100483.41;5137338;27;20530;-71
2022/05/11 09:08:26;;;;;;;3.77;3.70;;;;;;;20.32;61.52;100481.97;5137150;27;20204;-71
2022/05/11 09:10:52;;;;;;;5.07;4.70;;;;;;;20.28;61.35;100485.03;5136847;27;20202;-70
2022/05/11 09:13:20;;;;;;;7.00;4.23;;;;;;;20.43;61.81;100486.38;5136904;27;20213;-71
2022/05/11 09:15:54;;;;;;;11.53;4.23;;;;;;;20.39;61.39;100487.63;5137202;27;20200;-71
2022/05/11 09:18:43;;;;;;;5.70;4.00;;;;;;;20.58;61.67;100482.44;5118323;27;20244;-70
2022/05/11 09:21:29;;;;;;;4.53;4.13;;;;;;;20.63;61.09;100483.81;5137386;27;20188;-71
2022/05/11 09:24:02;;;;;;;4.20;4.10;;;;;;;20.89;61.86;100475.25;5136682;27;20195;-70
2022/05/11 09:26:39;;;;;;;4.20;4.07;;;;;;;21.00;61.10;100474.28;5137023;27;20234;-70
2022/05/11 09:29:35;;;;;;;4.90;4.50;;;;;;;20.88;60.58;100473.56;5136586;27;20232;-70
2022/05/11 09:32:26;;;;;;;6.10;4.67;;;;;;;20.89;60.54;100461.09;5134587;27;20666;-70
2022/05/11 09:34:53;;;;;;;9.07;4.63;;;;;;;21.24;60.16;100467.75;5136781;27;20627;-70
2022/05/11 09:37:28;;;;;;;6.33;4.37;;;;;;;21.11;58.88;100465.34;5136443;27;20189;-70
2022/05/11 09:40:12;;;;;;;4.27;4.07;;;;;;;20.95;58.65;100463.22;5136428;27;20211;-71
2022/05/11 09:42:55;;;;;;;6.00;4.50;;;;;;;21.01;60.74;100467.16;5137112;27;20196;-70
2022/05/11 09:45:33;;;;;;;4.17;3.90;;;;;;;21.02;60.64;100464.34;5136525;27;20177;-71
2022/05/11 09:48:03;;;;;;;5.10;4.80;;;;;;;21.17;61.03;100473.63;5136660;27;20264;-71
2022/05/11 09:50:29;;;;;;;5.10;4.03;;;;;;;21.03;59.14;100463.38;5129250;27;20209;-69
2022/05/11 09:53:07;;;;;;;4.13;3.90;;;;;;;21.24;60.56;100465.09;5120921;27;20646;-69
2022/05/11 09:55:34;;;;;;;6.70;4.40;;;;;;;21.42;59.36;100458.97;5136421;27;20515;-70
2022/05/11 09:58:06;;;;;;;5.43;5.13;;;;;;;21.25;59.30;100472.09;5133691;27;20230;-69
2022/05/11 10:00:42;;;;;;;5.20;5.00;;;;;;;21.13;60.15;100464.22;5134900;27;20730;-69
2022/05/11 10:03:17;;;;;;;6.83;4.37;;;;;;;21.17;60.32;100459.47;5133117;27;20211;-69
2022/05/11 10:05:49;;;;;;;5.63;5.40;;;;;;;21.31;58.70;100469.75;5133467;27;20567;-70
2022/05/11 10:08:22;;;;;;;5.57;4.90;;;;;;;21.38;59.07;100446.09;5136081;27;20204;-70
2022/05/11 10:11:00;;;;;;;4.77;4.57;;;;;;;21.67;59.25;100459.41;5135819;27;20188;-70
2022/05/11 10:13:44;;;;;;;5.43;5.27;;;;;;;21.70;59.24;100454.63;5134221;27;20184;-69
2022/05/11 10:22:23;;;;;;;5.83;4.33;;;;;;;21.62;57.76;100451.81;5133657;27;20662;-69
2022/05/11 10:25:01;;;;;;;5.53;4.70;;;;;;;21.64;58.89;100441.00;5124223;27;20253;-69
2022/05/11 10:27:39;;;;;;;5.83;5.17;;;;;;;21.73;58.93;100437.53;5134335;27;20180;-69
2022/05/11 10:30:25;;;;;;;8.73;5.07;;;;;;;21.68;57.64;100432.59;5134438;27;20212;-70
2022/05/11 10:33:27;;;;;;;5.30;5.20;;;;;;;21.66;57.99;100431.06;5134915;27;20568;-69
2022/05/11 10:36:02;;;;;;;4.17;3.97;;;;;;;21.92;56.81;100434.81;5117739;27;20211;-70
2022/05/11 10:38:48;;;;;;;5.17;4.97;;;;;;;21.90;57.01;100423.44;5135251;27;20264;-70
2022/05/11 10:41:42;;;;;;;4.87;4.53;;;;;;;21.97;58.13;100424.56;5135781;27;20623;-70
2022/05/11 10:44:29;;;;;;;6.67;4.50;;;;;;;21.75;56.99;100427.56;5132997;27;20261;-70
2022/05/11 10:47:22;;;;;;;4.80;4.67;;;;;;;21.95;57.81;100429.19;5135065;27;20729;-70
2022/05/11 10:49:54;;;;;;;4.87;4.67;;;;;;;22.00;57.62;100428.75;5134686;27;20219;-70
2022/05/11 10:52:51;;;;;;;5.87;5.37;;;;;;;21.87;56.43;100428.25;5135568;27;20181;-69
2022/05/11 10:55:44;;;;;;;3.77;3.77;;;;;;;22.10;58.17;100434.94;5135198;27;20613;-69
2022/05/11 10:58:32;;;;;;;4.27;4.17;;;;;;;22.05;56.18;100428.31;5134769;27;20224;-69
2022/05/11 11:01:10;;;;;;;5.63;4.77;;;;;;;22.15;57.60;100429.19;5114349;28;20173;-69
2022/05/11 11:04:15;;;;;;;8.53;4.83;;;;;;;22.18;57.20;100413.72;5114181;28;20238;-70
2022/05/11 11:07:14;;;;;;;10.90;4.30;;;;;;;22.49;58.14;100416.97;5114406;28;20180;-70
2022/05/11 11:10:02;;;;;;;4.70;4.33;;;;;;;22.28;55.79;100420.84;5087032;28;20262;-70
2022/05/11 11:13:10;;;;;;;4.10;4.00;;;;;;;22.38;56.92;100414.50;5129366;27;20187;-70
2022/05/11 11:15:41;;;;;;;4.00;3.90;;;;;;;22.48;55.82;100412.63;5122814;27;20208;-69
2022/05/11 11:18:12;;;;;;;6.87;4.87;;;;;;;22.57;55.20;100410.03;5134790;27;20696;-69
2022/05/11 11:20:43;;;;;;;4.80;4.70;;;;;;;22.58;55.50;100407.25;5134787;27;20216;-69
2022/05/11 11:23:30;;;;;;;4.17;3.83;;;;;;;22.56;54.63;100414.53;5134634;27;20193;-70
2022/05/11 11:26:03;;;;;;;6.53;4.23;;;;;;;22.62;54.57;100407.78;5134748;27;20168;-70
2022/05/11 11:28:33;;;;;;;4.37;4.23;;;;;;;22.34;53.79;100404.25;5131590;27;20209;-70
2022/05/11 11:31:00;;;;;;;4.60;4.23;;;;;;;22.48;54.60;100395.78;5133267;27;20655;-70
2022/05/11 11:33:31;;;;;;;6.00;3.87;;;;;;;22.55;54.74;100396.84;5133449;27;20237;-71
2022/05/11 11:36:05;;;;;;;5.30;4.07;;;;;;;22.57;53.83;100397.53;5133484;27;20208;-70
2022/05/11 11:38:41;;;;;;;7.43;3.23;;;;;;;22.72;54.35;100390.75;5131700;27;20273;-70
2022/05/11 11:41:14;;;;;;;6.17;3.93;;;;;;;22.70;53.80;100389.19;5118769;28;20180;-70
2022/05/11 11:43:44;;;;;;;4.70;3.30;;;;;;;22.80;54.16;100387.31;5131366;28;20239;-70
2022/05/11 11:46:27;;;;;;;5.60;3.67;;;;;;;22.92;53.01;100385.28;5123785;28;20214;-70
2022/05/11 11:49:18;;;;;;;4.10;3.90;;;;;;;22.91;53.78;100381.78;5119628;28;20290;-70
2022/05/11 11:51:50;;;;;;;3.80;3.70;;;;;;;23.23;53.43;100378.59;5132812;28;20208;-71
2022/05/11 11:54:29;;;;;;;14.30;3.77;;;;;;;23.14;50.67;100373.31;5127346;27;20221;-71
2022/05/11 11:56:58;;;;;;;3.60;3.23;;;;;;;23.18;50.93;100367.53;5137966;27;20538;-70
2022/05/11 11:59:24;;;;;;;6.63;3.77;;;;;;;23.35;49.58;100379.19;5133784;27;20216;-70
2022/05/11 12:01:56;;;;;;;12.10;3.60;;;;;;;23.30;49.06;100378.81;5123993;27;20248;-70
2022/05/11 12:04:34;;;;;;;5.23;4.17;;;;;;;23.35;48.45;100366.66;5136443;27;20196;-70
2022/05/11 12:15:32;;;;;;;3.70;3.57;;;;;;;23.27;48.53;100358.56;5136707;27;20238;-70
2022/05/11 12:17:58;;;;;;;11.63;3.57;;;;;;;23.44;49.77;100362.25;5137840;27;20561;-70
2022/05/11 12:20:26;;;;;;;6.43;3.23;;;;;;;23.68;50.13;100353.59;5136836;27;20219;-70